createdAt,value
2023-03-18T00:00:09.847Z,18.40
2023-03-18T00:02:38.183Z,18.40
2023-03-18T00:05:07.465Z,18.40
2023-03-18T00:07:36.112Z,18.40
2023-03-18T00:10:04.186Z,18.40
2023-03-18T00:12:33.236Z,18.40
2023-03-18T00:15:02.508Z,18.50
2023-03-18T00:17:31.000Z,18.40
2023-03-18T00:20:05.652Z,18.40
2023-03-18T00:22:34.014Z,18.40
2023-03-18T00:25:02.019Z,18.40
2023-03-18T00:27:30.336Z,18.50
2023-03-18T00:29:58.926Z,18.40
2023-03-18T00:32:29.053Z,18.40
2023-03-18T00:34:57.264Z,18.40
2023-03-18T00:37:31.134Z,18.50
2023-03-18T00:40:04.832Z,18.50
2023-03-18T00:42:37.243Z,18.50
2023-03-18T00:45:07.081Z,18.50
2023-03-18T00:47:38.406Z,18.50
2023-03-18T00:50:07.321Z,18.50
2023-03-18T00:52:35.319Z,18.50
2023-03-18T00:55:03.216Z,18.50
2023-03-18T00:57:31.302Z,18.50
2023-03-18T00:59:59.904Z,18.50
2023-03-18T01:02:28.919Z,18.50
2023-03-18T01:04:58.936Z,18.50
2023-03-18T01:07:27.025Z,18.50
2023-03-18T01:09:55.143Z,18.50
2023-03-18T01:12:25.567Z,18.50
2023-03-18T01:14:53.756Z,18.50
2023-03-18T01:17:21.881Z,18.50
2023-03-18T01:19:49.912Z,18.50
2023-03-18T01:22:19.525Z,18.50
2023-03-18T01:24:50.705Z,18.50
2023-03-18T01:27:21.782Z,18.50
2023-03-18T01:29:49.917Z,18.50
2023-03-18T01:32:22.350Z,18.50
2023-03-18T01:34:50.630Z,18.50
2023-03-18T01:39:55.795Z,18.50
2023-03-18T01:42:24.758Z,18.50
2023-03-18T01:45:12.238Z,18.50
2023-03-18T01:47:44.578Z,18.50
2023-03-18T01:50:14.896Z,18.50
2023-03-18T01:52:44.689Z,18.50
2023-03-18T01:55:15.947Z,18.50
2023-03-18T01:57:44.140Z,18.50
2023-03-18T02:00:12.830Z,18.50
2023-03-18T02:02:46.963Z,18.50
2023-03-18T02:05:17.501Z,18.50
2023-03-18T02:07:47.137Z,18.50
2023-03-18T02:10:16.728Z,18.50
2023-03-18T02:12:45.726Z,18.40
2023-03-18T02:15:21.317Z,18.40
2023-03-18T02:17:52.619Z,18.50
2023-03-18T02:20:32.197Z,18.50
2023-03-18T02:23:04.567Z,18.40
2023-03-18T02:25:37.413Z,18.40
2023-03-18T02:28:09.514Z,18.40
2023-03-18T02:30:39.189Z,18.40
2023-03-18T02:33:08.404Z,18.40
2023-03-18T02:35:36.700Z,18.30
2023-03-18T02:38:04.931Z,18.40
2023-03-18T02:40:34.103Z,18.30
2023-03-18T02:43:21.043Z,18.30
2023-03-18T02:46:16.013Z,18.30
2023-03-18T02:48:45.094Z,18.30
2023-03-18T02:51:14.285Z,18.30
2023-03-18T02:53:42.226Z,18.30
2023-03-18T02:56:10.758Z,18.30
2023-03-18T02:58:41.321Z,18.30
2023-03-18T03:01:10.368Z,18.40
2023-03-18T03:03:38.686Z,18.30
2023-03-18T03:06:08.826Z,18.40
2023-03-18T03:08:36.807Z,18.40
2023-03-18T03:11:06.275Z,18.40
2023-03-18T03:13:37.029Z,18.40
2023-03-18T03:16:06.848Z,18.40
2023-03-18T03:18:35.364Z,18.40
2023-03-18T03:21:04.223Z,18.40
2023-03-18T03:23:32.494Z,18.40
2023-03-18T03:26:00.373Z,18.40
2023-03-18T03:28:28.470Z,18.50
2023-03-18T03:30:56.987Z,18.50
2023-03-18T03:33:26.471Z,18.50
2023-03-18T03:35:54.654Z,18.50
2023-03-18T03:38:23.054Z,18.50
2023-03-18T03:40:51.341Z,18.50
2023-03-18T03:43:19.232Z,18.50
2023-03-18T03:45:47.229Z,18.50
2023-03-18T03:48:15.517Z,18.50
2023-03-18T03:50:44.810Z,18.50
2023-03-18T03:53:12.725Z,18.50
2023-03-18T03:55:41.223Z,18.50
2023-03-18T03:58:10.945Z,18.50
2023-03-18T04:00:39.983Z,18.50
2023-03-18T04:03:08.051Z,18.50
2023-03-18T04:05:35.955Z,18.50
2023-03-18T04:08:05.522Z,18.50
2023-03-18T04:10:38.378Z,18.50
2023-03-18T04:13:10.314Z,18.60
2023-03-18T04:15:38.832Z,18.50
2023-03-18T04:18:11.746Z,18.60
2023-03-18T04:20:40.007Z,18.60
2023-03-18T04:23:20.769Z,18.60
2023-03-18T04:25:48.730Z,18.60
2023-03-18T04:28:17.629Z,18.60
2023-03-18T04:30:45.531Z,18.50
2023-03-18T04:33:17.880Z,18.60
2023-03-18T04:35:45.920Z,18.60
2023-03-18T04:38:15.542Z,18.60
2023-03-18T04:40:45.553Z,18.60
2023-03-18T04:43:13.533Z,18.60
2023-03-18T04:45:41.447Z,18.60
2023-03-18T04:48:10.291Z,18.60
2023-03-18T04:50:41.483Z,18.60
2023-03-18T04:53:13.407Z,18.60
2023-03-18T04:55:41.687Z,18.60
2023-03-18T04:58:13.494Z,18.60
2023-03-18T05:00:48.060Z,18.60
2023-03-18T05:03:25.123Z,18.60
2023-03-18T05:05:53.202Z,18.60
2023-03-18T05:08:27.316Z,18.60
2023-03-18T05:10:56.044Z,18.60
2023-03-18T05:13:25.611Z,18.60
2023-03-18T05:15:53.881Z,18.60
2023-03-18T05:18:22.304Z,18.60
2023-03-18T05:20:53.356Z,18.60
2023-03-18T05:23:21.235Z,18.60
2023-03-18T05:25:52.744Z,18.60
2023-03-18T05:28:22.704Z,18.60
2023-03-18T05:31:07.861Z,18.60
2023-03-18T05:33:42.327Z,18.60
2023-03-18T05:36:11.557Z,18.60
2023-03-18T05:38:49.210Z,18.60
2023-03-18T05:41:17.408Z,18.60
2023-03-18T05:43:45.385Z,18.60
2023-03-18T05:46:14.935Z,18.60
2023-03-18T05:48:53.490Z,18.60
2023-03-18T05:51:23.056Z,18.60
2023-03-18T05:53:51.233Z,18.60
2023-03-18T05:56:26.153Z,18.60
2023-03-18T05:58:58.652Z,18.60
2023-03-18T06:01:34.341Z,18.60
2023-03-18T06:04:03.082Z,18.50
2023-03-18T06:06:31.896Z,18.50
2023-03-18T06:09:00.927Z,18.50
2023-03-18T06:11:29.393Z,18.50
2023-03-18T06:13:58.186Z,18.50
2023-03-18T06:16:26.616Z,18.50
2023-03-18T06:18:59.274Z,18.50
2023-03-18T06:21:27.292Z,18.50
2023-03-18T06:23:55.234Z,18.50
2023-03-18T06:26:23.719Z,18.50
2023-03-18T06:28:51.652Z,18.40
2023-03-18T06:31:19.634Z,18.40
2023-03-18T06:33:47.674Z,18.50
2023-03-18T06:36:19.548Z,18.40
2023-03-18T06:38:50.822Z,18.40
2023-03-18T06:41:18.957Z,18.40
2023-03-18T06:43:59.740Z,18.40
2023-03-18T06:46:30.455Z,18.50
2023-03-18T06:48:59.966Z,18.50
2023-03-18T06:51:34.318Z,18.50
2023-03-18T06:54:02.605Z,18.50
2023-03-18T06:56:33.861Z,18.50
2023-03-18T06:59:12.844Z,18.50
2023-03-18T07:01:41.331Z,18.60
2023-03-18T07:04:09.392Z,18.60
2023-03-18T07:06:39.016Z,18.60
2023-03-18T07:09:07.035Z,18.60
2023-03-18T07:11:35.199Z,18.60
2023-03-18T07:14:08.865Z,18.60
2023-03-18T07:16:37.415Z,18.60
2023-03-18T07:19:05.387Z,18.60
2023-03-18T07:21:33.388Z,18.60
2023-03-18T07:24:03.907Z,18.60
2023-03-18T07:26:31.896Z,18.60
2023-03-18T07:28:59.783Z,18.60
2023-03-18T07:31:28.342Z,18.60
2023-03-18T07:33:57.331Z,18.60
2023-03-18T07:36:25.638Z,18.70
2023-03-18T07:38:53.555Z,18.70
2023-03-18T07:41:22.828Z,18.70
2023-03-18T07:43:50.685Z,18.70
2023-03-18T07:46:18.927Z,18.70
2023-03-18T07:48:46.835Z,18.70
2023-03-18T07:51:15.628Z,18.70
2023-03-18T07:53:43.593Z,18.70
2023-03-18T07:56:11.607Z,18.70
2023-03-18T07:58:41.002Z,18.70
2023-03-18T08:01:09.407Z,18.70
2023-03-18T08:03:37.446Z,18.80
2023-03-18T08:06:05.618Z,18.70
2023-03-18T08:08:33.779Z,18.70
2023-03-18T08:11:02.457Z,18.70
2023-03-18T08:13:30.395Z,18.80
2023-03-18T08:15:59.692Z,18.70
2023-03-18T08:18:27.567Z,18.80
2023-03-18T08:20:55.418Z,18.70
2023-03-18T08:23:23.594Z,18.70
2023-03-18T08:25:52.041Z,18.70
2023-03-18T08:28:20.131Z,18.70
2023-03-18T08:30:48.842Z,18.70
2023-03-18T08:33:18.065Z,18.70
2023-03-18T08:35:46.365Z,18.70
2023-03-18T08:38:14.488Z,18.80
2023-03-18T08:40:42.415Z,18.80
2023-03-18T08:43:10.320Z,18.70
2023-03-18T08:45:39.116Z,18.80
2023-03-18T08:48:07.169Z,18.80
2023-03-18T08:50:36.865Z,18.70
2023-03-18T08:53:05.685Z,18.70
2023-03-18T08:55:35.127Z,18.70
2023-03-18T08:58:04.361Z,18.70
2023-03-18T09:00:32.274Z,18.70
2023-03-18T09:03:00.136Z,18.70
2023-03-18T09:05:27.976Z,18.70
2023-03-18T09:07:58.254Z,18.70
2023-03-18T09:10:26.334Z,18.70
2023-03-18T09:12:54.403Z,18.70
2023-03-18T09:15:22.541Z,18.70
2023-03-18T09:18:08.161Z,18.70
2023-03-18T09:20:38.922Z,18.80
2023-03-18T09:23:08.793Z,18.70
2023-03-18T09:25:36.810Z,18.70
2023-03-18T09:28:04.891Z,18.70
2023-03-18T09:30:33.734Z,18.70
2023-03-18T09:33:01.833Z,18.70
2023-03-18T09:35:30.499Z,18.70
2023-03-18T09:37:58.467Z,18.70
2023-03-18T09:40:28.639Z,18.70
2023-03-18T09:43:03.649Z,18.70
2023-03-18T09:45:34.358Z,18.70
2023-03-18T09:48:27.643Z,18.70
2023-03-18T09:50:58.090Z,18.70
2023-03-18T09:53:28.064Z,18.70
2023-03-18T09:56:00.748Z,18.80
2023-03-18T09:58:31.043Z,18.80
2023-03-18T10:01:01.169Z,18.70
2023-03-18T10:03:33.460Z,18.80
2023-03-18T10:06:04.428Z,18.70
2023-03-18T10:08:40.077Z,18.70
2023-03-18T10:11:14.029Z,18.80
2023-03-18T10:13:43.958Z,18.70
2023-03-18T10:16:13.160Z,18.70
2023-03-18T10:18:42.057Z,18.70
2023-03-18T10:21:16.002Z,18.80
2023-03-18T10:23:49.551Z,18.70
2023-03-18T10:26:20.663Z,18.80
2023-03-18T10:28:59.308Z,18.80
2023-03-18T10:31:37.476Z,18.80
2023-03-18T10:34:09.554Z,18.80
2023-03-18T10:36:40.315Z,18.70
2023-03-18T10:39:13.514Z,18.80
2023-03-18T10:41:43.553Z,18.80
2023-03-18T10:44:16.845Z,18.80
2023-03-18T10:46:45.043Z,18.80
2023-03-18T10:49:14.987Z,18.80
2023-03-18T10:51:45.336Z,18.80
2023-03-18T10:54:15.788Z,18.80
2023-03-18T10:56:45.039Z,18.80
2023-03-18T10:59:15.307Z,18.80
2023-03-18T11:01:44.108Z,18.80
2023-03-18T11:04:14.406Z,18.80
2023-03-18T11:06:45.198Z,18.80
2023-03-18T11:09:13.908Z,18.80
2023-03-18T11:11:42.109Z,18.80
2023-03-18T11:14:17.046Z,18.80
2023-03-18T11:16:49.487Z,18.80
2023-03-18T11:19:27.974Z,18.90
2023-03-18T11:22:22.329Z,18.90
2023-03-18T11:25:16.517Z,18.90
2023-03-18T11:27:45.827Z,18.90
2023-03-18T11:30:33.185Z,18.90
2023-03-18T11:33:05.270Z,18.90
2023-03-18T11:35:34.508Z,18.90
2023-03-18T11:38:04.228Z,18.90
2023-03-18T11:40:32.790Z,18.80
2023-03-18T11:43:01.761Z,18.90
2023-03-18T11:45:58.859Z,18.80
2023-03-18T11:48:36.559Z,18.80
2023-03-18T11:51:19.332Z,18.90
2023-03-18T11:53:56.570Z,18.90
2023-03-18T11:56:27.198Z,18.90
2023-03-18T11:59:34.174Z,18.90
2023-03-18T12:02:16.432Z,18.90
2023-03-18T12:04:51.234Z,18.90
2023-03-18T12:07:49.428Z,18.90
2023-03-18T12:10:20.721Z,18.90
2023-03-18T12:13:09.502Z,18.90
2023-03-18T12:15:42.946Z,18.90
2023-03-18T12:18:24.278Z,18.90
2023-03-18T12:20:52.535Z,18.90
2023-03-18T12:23:38.549Z,18.90
2023-03-18T12:26:08.396Z,18.90
2023-03-18T12:28:48.890Z,18.90
2023-03-18T12:31:40.724Z,18.90
2023-03-18T12:34:15.100Z,18.90
2023-03-18T12:36:50.163Z,18.90
2023-03-18T12:39:57.142Z,18.90
2023-03-18T12:42:33.437Z,18.90
2023-03-18T12:45:03.172Z,18.90
2023-03-18T12:47:36.889Z,18.90
2023-03-18T12:50:07.247Z,18.90
2023-03-18T12:52:38.672Z,18.90
2023-03-18T12:55:09.190Z,18.90
2023-03-18T12:57:40.097Z,18.90
2023-03-18T13:00:10.537Z,18.90
2023-03-18T13:02:43.500Z,18.90
2023-03-18T13:05:20.875Z,18.90
2023-03-18T13:07:50.856Z,18.90
2023-03-18T13:10:21.695Z,18.90
2023-03-18T13:12:50.093Z,18.90
2023-03-18T13:15:23.216Z,18.90
2023-03-18T13:17:52.338Z,18.90
2023-03-18T13:20:23.809Z,18.90
2023-03-18T13:23:02.599Z,18.90
2023-03-18T13:25:35.438Z,18.90
2023-03-18T13:28:25.439Z,18.90
2023-03-18T13:31:00.307Z,18.90
2023-03-18T13:33:47.469Z,19.00
2023-03-18T13:36:36.328Z,18.90
2023-03-18T13:39:12.349Z,19.00
2023-03-18T13:41:53.724Z,19.00
2023-03-18T13:44:23.653Z,19.00
2023-03-18T13:46:55.871Z,19.00
2023-03-18T13:49:24.495Z,19.00
2023-03-18T13:51:56.009Z,19.00
2023-03-18T13:54:24.042Z,19.10
2023-03-18T13:56:55.517Z,19.10
2023-03-18T13:59:46.746Z,19.10
2023-03-18T14:02:32.650Z,19.10
2023-03-18T14:05:01.383Z,19.10
2023-03-18T14:07:30.631Z,19.10
2023-03-18T14:10:20.243Z,19.10
2023-03-18T14:12:48.945Z,19.10
2023-03-18T14:15:44.369Z,19.10
2023-03-18T14:18:27.677Z,19.10
2023-03-18T14:21:00.280Z,19.10
2023-03-18T14:23:40.295Z,19.10
2023-03-18T14:26:23.467Z,19.00
2023-03-18T14:28:55.592Z,19.10
2023-03-18T14:31:51.999Z,19.00
2023-03-18T14:34:27.810Z,19.00
2023-03-18T14:37:21.636Z,19.00
2023-03-18T14:39:52.921Z,19.00
2023-03-18T14:42:39.021Z,19.00
2023-03-18T14:45:08.724Z,19.00
2023-03-18T14:47:43.427Z,19.00
2023-03-18T14:50:20.483Z,19.00
2023-03-18T14:52:54.394Z,19.00
2023-03-18T14:55:25.618Z,19.00
2023-03-18T14:57:53.773Z,19.00
2023-03-18T15:00:24.172Z,18.90
2023-03-18T15:03:00.627Z,18.90
2023-03-18T15:05:32.738Z,18.90
2023-03-18T15:08:00.746Z,18.90
2023-03-18T15:10:31.593Z,18.90
2023-03-18T15:13:04.681Z,18.90
2023-03-18T15:15:33.025Z,18.90
2023-03-18T15:18:06.574Z,18.90
2023-03-18T15:20:35.420Z,18.80
2023-03-18T15:23:04.170Z,18.80
2023-03-18T15:25:33.889Z,18.80
2023-03-18T15:28:01.922Z,18.80
2023-03-18T15:30:31.004Z,18.80
2023-03-18T15:33:06.606Z,18.80
2023-03-18T15:35:34.815Z,18.80
2023-03-18T15:38:16.109Z,18.70
2023-03-18T15:40:49.515Z,18.70
2023-03-18T15:43:28.385Z,18.70
2023-03-18T15:45:58.675Z,18.70
2023-03-18T15:48:30.818Z,18.70
2023-03-18T15:51:00.034Z,18.70
2023-03-18T15:53:28.802Z,18.70
2023-03-18T15:55:58.759Z,18.70
2023-03-18T15:58:27.964Z,18.70
2023-03-18T16:00:56.256Z,18.60
2023-03-18T16:03:25.298Z,18.70
2023-03-18T16:05:53.607Z,18.70
2023-03-18T16:08:22.690Z,18.60
2023-03-18T16:10:51.170Z,18.60
2023-03-18T16:13:23.115Z,18.60
2023-03-18T16:15:51.121Z,18.60
2023-03-18T16:18:19.408Z,18.60
2023-03-18T16:20:48.136Z,18.60
2023-03-18T16:23:16.517Z,18.60
2023-03-18T16:25:45.015Z,18.60
2023-03-18T16:28:22.142Z,18.60
2023-03-18T16:30:52.105Z,18.60
2023-03-18T16:33:20.664Z,18.60
2023-03-18T16:35:52.137Z,18.60
2023-03-18T16:38:20.395Z,18.60
2023-03-18T16:40:48.346Z,18.60
2023-03-18T16:43:22.083Z,18.60
2023-03-18T16:45:50.558Z,18.60
2023-03-18T16:48:19.980Z,18.60
2023-03-18T16:50:50.009Z,18.60
2023-03-18T16:53:20.485Z,18.50
2023-03-18T16:55:50.694Z,18.60
2023-03-18T16:58:21.536Z,18.50
2023-03-18T17:00:49.716Z,18.60
2023-03-18T17:03:19.159Z,18.50
2023-03-18T17:05:48.716Z,18.50
2023-03-18T17:08:16.863Z,18.50
2023-03-18T17:10:45.219Z,18.50
2023-03-18T17:13:17.246Z,18.50
2023-03-18T17:15:46.507Z,18.50
2023-03-18T17:18:15.870Z,18.50
2023-03-18T17:20:44.113Z,18.50
2023-03-18T17:23:19.515Z,18.50
2023-03-18T17:25:51.900Z,18.60
2023-03-18T17:28:24.881Z,18.60
2023-03-18T17:30:54.222Z,18.60
2023-03-18T17:33:24.766Z,18.60
2023-03-18T17:35:53.182Z,18.60
2023-03-18T17:38:21.361Z,18.60
2023-03-18T17:40:49.497Z,18.60
2023-03-18T17:43:23.974Z,18.60
2023-03-18T17:45:52.585Z,18.60
2023-03-18T17:48:23.527Z,18.60
2023-03-18T17:50:52.196Z,18.60
2023-03-18T17:53:28.112Z,18.60
2023-03-18T17:55:56.812Z,18.60
2023-03-18T17:58:26.052Z,18.60
2023-03-18T18:00:54.866Z,18.50
2023-03-18T18:03:25.627Z,18.50
2023-03-18T18:05:54.027Z,18.60
2023-03-18T18:08:22.619Z,18.60
2023-03-18T18:10:50.534Z,18.50
2023-03-18T18:13:19.494Z,18.60
2023-03-18T18:15:47.672Z,18.60
2023-03-18T18:18:23.095Z,18.60
2023-03-18T18:20:54.842Z,18.60
2023-03-18T18:23:25.346Z,18.70
2023-03-18T18:25:53.391Z,18.70
2023-03-18T18:28:22.187Z,18.70
2023-03-18T18:30:50.252Z,18.70
2023-03-18T18:33:18.188Z,18.70
2023-03-18T18:35:46.137Z,18.70
2023-03-18T18:38:15.701Z,18.70
2023-03-18T18:40:43.630Z,18.70
2023-03-18T18:43:12.483Z,18.70
2023-03-18T18:45:40.644Z,18.70
2023-03-18T18:48:13.752Z,18.70
2023-03-18T18:50:42.350Z,18.70
2023-03-18T18:53:22.188Z,18.70
2023-03-18T18:55:50.554Z,18.70
2023-03-18T18:58:18.738Z,18.70
2023-03-18T19:00:48.530Z,18.70
2023-03-18T19:03:17.330Z,18.70
2023-03-18T19:05:45.823Z,18.70
2023-03-18T19:08:25.213Z,18.70
2023-03-18T19:10:54.490Z,18.70
2023-03-18T19:13:23.531Z,18.70
2023-03-18T19:15:52.438Z,18.70
2023-03-18T19:18:21.155Z,18.70
2023-03-18T19:20:49.862Z,18.70
2023-03-18T19:23:20.129Z,18.70
2023-03-18T19:25:48.052Z,18.70
2023-03-18T19:28:17.725Z,18.70
2023-03-18T19:30:45.709Z,18.70
2023-03-18T19:33:15.409Z,18.70
2023-03-18T19:35:43.518Z,18.70
2023-03-18T19:38:20.322Z,18.70
2023-03-18T19:40:49.965Z,18.70
2023-03-18T19:43:18.723Z,18.60
2023-03-18T19:45:49.204Z,18.60
2023-03-18T19:48:19.189Z,18.70
2023-03-18T19:50:47.644Z,18.70
2023-03-18T19:53:16.181Z,18.60
2023-03-18T19:55:45.649Z,18.60
2023-03-18T19:58:19.111Z,18.60
2023-03-18T20:00:47.465Z,18.60
2023-03-18T20:03:17.099Z,18.60
2023-03-18T20:05:45.035Z,18.50
2023-03-18T20:08:12.924Z,18.60
2023-03-18T20:10:41.444Z,18.60
2023-03-18T20:13:14.855Z,18.50
2023-03-18T20:15:42.895Z,18.60
2023-03-18T20:18:14.892Z,18.50
2023-03-18T20:20:43.234Z,18.50
2023-03-18T20:23:13.032Z,18.60
2023-03-18T20:25:43.695Z,18.50
2023-03-18T20:28:15.321Z,18.50
2023-03-18T20:30:43.226Z,18.50
2023-03-18T20:33:11.194Z,18.50
2023-03-18T20:35:39.992Z,18.50
2023-03-18T20:38:16.873Z,18.50
2023-03-18T20:40:47.535Z,18.50
2023-03-18T20:43:17.280Z,18.50
2023-03-18T20:45:45.178Z,18.50
2023-03-18T20:48:13.326Z,18.50
2023-03-18T20:50:41.221Z,18.50
2023-03-18T20:53:13.293Z,18.50
2023-03-18T20:55:41.523Z,18.50
2023-03-18T20:58:11.563Z,18.40
2023-03-18T21:00:40.829Z,18.40
2023-03-18T21:03:18.788Z,18.40
2023-03-18T21:05:47.458Z,18.40
2023-03-18T21:08:15.508Z,18.40
2023-03-18T21:10:43.501Z,18.40
2023-03-18T21:13:17.514Z,18.40
2023-03-18T21:15:47.757Z,18.40
2023-03-18T21:18:15.738Z,18.40
2023-03-18T21:20:45.674Z,18.30
2023-03-18T21:23:19.701Z,18.30
2023-03-18T21:25:48.298Z,18.30
2023-03-18T21:28:16.316Z,18.30
2023-03-18T21:30:44.304Z,18.30
2023-03-18T21:33:22.799Z,18.30
2023-03-18T21:35:52.400Z,18.30
2023-03-18T21:38:20.482Z,18.30
2023-03-18T21:40:48.381Z,18.30
2023-03-18T21:43:29.370Z,18.20
2023-03-18T21:45:57.269Z,18.30
2023-03-18T21:48:26.573Z,18.20
2023-03-18T21:50:54.586Z,18.20
2023-03-18T21:53:23.303Z,18.20
2023-03-18T21:55:51.563Z,18.30
2023-03-18T21:58:20.369Z,18.30
2023-03-18T22:00:50.641Z,18.30
2023-03-18T22:03:19.364Z,18.30
2023-03-18T22:05:51.479Z,18.30
2023-03-18T22:08:19.728Z,18.30
2023-03-18T22:10:47.784Z,18.30
2023-03-18T22:13:17.641Z,18.30
2023-03-18T22:15:46.013Z,18.30
2023-03-18T22:18:14.611Z,18.30
2023-03-18T22:20:42.724Z,18.40
2023-03-18T22:23:17.264Z,18.40
2023-03-18T22:25:46.570Z,18.40
2023-03-18T22:28:14.515Z,18.40
2023-03-18T22:30:42.942Z,18.40
2023-03-18T22:33:18.229Z,18.40
2023-03-18T22:35:46.201Z,18.50
2023-03-18T22:38:16.877Z,18.50
2023-03-18T22:40:45.264Z,18.50
2023-03-18T22:43:22.682Z,18.50
2023-03-18T22:45:50.674Z,18.50
2023-03-18T22:48:18.835Z,18.50
2023-03-18T22:50:46.849Z,18.50
2023-03-18T22:53:19.017Z,18.60
2023-03-18T22:55:47.020Z,18.60
2023-03-18T22:58:18.471Z,18.60
2023-03-18T23:00:46.498Z,18.60
2023-03-18T23:03:17.584Z,18.60
2023-03-18T23:05:45.991Z,18.60
2023-03-18T23:08:13.990Z,18.60
2023-03-18T23:10:43.710Z,18.60
2023-03-18T23:13:15.498Z,18.60
2023-03-18T23:15:43.491Z,18.60
2023-03-18T23:18:14.143Z,18.60
2023-03-18T23:20:42.078Z,18.60
2023-03-18T23:23:10.080Z,18.60
2023-03-18T23:25:38.027Z,18.60
2023-03-18T23:28:07.631Z,18.60
2023-03-18T23:30:35.854Z,18.60
2023-03-18T23:33:03.954Z,18.60
2023-03-18T23:35:32.710Z,18.50
2023-03-18T23:38:00.931Z,18.60
2023-03-18T23:40:28.858Z,18.50
2023-03-18T23:42:56.741Z,18.50
2023-03-18T23:45:27.610Z,18.50
2023-03-18T23:47:55.517Z,18.50
2023-03-18T23:50:23.440Z,18.50
2023-03-18T23:52:51.431Z,18.50
2023-03-18T23:55:33.605Z,18.50
2023-03-18T23:58:02.431Z,18.50
